Hill Church, Pennsylvania
Current Conditions -  °F | °C
As of 3:54 PM on Thursday 18 Dec 2014 (Local Time) from KPTW Reporting Station
Few Clouds Few Clouds  
Wind Chill: 26°   Ceiling: Unl
Heat Index: 35°   Visibility: 10mi
Dew Point: 24°   Wind: 14mph
Humidity: 64%   Direction: 290°WNW
Pressure: 30.03"   Gusts: 21mph
Location:  40.3481°N, 75.6818°W
Report Text: KPTW 182054Z AUTO 29012G18KT 10SM FEW038 02/M04 A3003 RMK AO2 SLP168 T00171044 56005
Loading
Personal Weather Stations






























Interactive Weather Map New forecast layout! Learn more

10-Day Weather Forecast

Advertisements
Track Severe Weather on mobile